createdAt,value
2018-04-18T00:01:57.776Z,22.23
2018-04-18T00:06:00.427Z,13.90
2018-04-18T00:10:03.038Z,14.20
2018-04-18T00:14:06.439Z,17.10
2018-04-18T00:18:09.904Z,13.67
2018-04-18T00:22:12.578Z,16.27
2018-04-18T00:26:15.202Z,19.80
2018-04-18T00:30:17.868Z,14.13
2018-04-18T00:34:20.528Z,15.87
2018-04-18T00:38:23.237Z,14.13
2018-04-18T00:42:25.881Z,22.33
2018-04-18T00:46:29.260Z,14.03
2018-04-18T00:50:31.917Z,16.73
2018-04-18T00:54:34.557Z,14.10
2018-04-18T00:58:37.975Z,17.30
2018-04-18T01:02:41.379Z,17.43
2018-04-18T01:06:44.807Z,14.17
2018-04-18T01:10:47.483Z,14.57
2018-04-18T01:14:50.899Z,14.87
2018-04-18T01:18:53.543Z,14.00
2018-04-18T01:22:56.192Z,12.30
2018-04-18T01:26:58.801Z,12.53
2018-04-18T01:31:01.455Z,11.67
2018-04-18T01:35:04.116Z,17.10
2018-04-18T01:39:07.526Z,15.93
2018-04-18T01:43:11.061Z,13.20
2018-04-18T01:47:13.713Z,13.60
2018-04-18T01:51:16.366Z,17.23
2018-04-18T01:55:19.021Z,14.50
2018-04-18T01:59:21.712Z,17.70
2018-04-18T02:03:24.319Z,14.13
2018-04-18T02:07:26.967Z,13.13
2018-04-18T02:11:30.448Z,12.23
2018-04-18T02:15:33.102Z,12.93
2018-04-18T02:19:35.759Z,19.63
2018-04-18T02:23:38.395Z,13.80
2018-04-18T02:27:41.046Z,20.87
2018-04-18T02:31:43.693Z,16.33
2018-04-18T02:35:46.348Z,22.07
2018-04-18T02:39:49.007Z,15.00
2018-04-18T02:43:52.448Z,14.20
2018-04-18T02:47:55.093Z,10.87
2018-04-18T02:51:58.565Z,11.20
2018-04-18T02:56:01.284Z,16.73
2018-04-18T03:00:04.665Z,15.57
2018-04-18T03:04:07.316Z,14.13
2018-04-18T03:08:10.758Z,13.63
2018-04-18T03:12:13.407Z,13.03
2018-04-18T03:16:16.827Z,14.37
2018-04-18T03:20:19.431Z,9.80
2018-04-18T03:24:22.090Z,17.80
2018-04-18T03:28:24.740Z,14.30
2018-04-18T03:32:27.427Z,12.03
2018-04-18T03:36:30.129Z,14.07
2018-04-18T03:40:33.567Z,16.07
2018-04-18T03:44:36.215Z,14.53
2018-04-18T03:48:39.623Z,16.43
2018-04-18T03:52:43.045Z,12.67
2018-04-18T03:56:45.717Z,16.10
2018-04-18T04:00:49.090Z,15.50
2018-04-18T04:04:51.803Z,13.40
2018-04-18T04:08:54.461Z,12.27
2018-04-18T04:12:57.146Z,14.07
2018-04-18T04:17:11.773Z,15.23
2018-04-18T04:21:27.173Z,16.70
2018-04-18T04:25:29.896Z,15.40
2018-04-18T04:29:32.654Z,15.07
2018-04-18T04:33:35.305Z,23.33
2018-04-18T04:37:37.915Z,16.93
2018-04-18T04:41:41.339Z,25.10
2018-04-18T04:45:43.983Z,25.77
2018-04-18T04:49:46.623Z,22.00
2018-04-18T04:53:49.280Z,26.60
2018-04-18T04:57:52.660Z,16.40
2018-04-18T05:01:55.325Z,17.30
2018-04-18T05:05:58.785Z,19.03
2018-04-18T05:10:02.220Z,19.10
2018-04-18T05:14:05.654Z,18.20
2018-04-18T05:18:08.356Z,19.10
2018-04-18T05:22:11.040Z,21.27
2018-04-18T05:26:13.695Z,19.03
2018-04-18T05:30:16.363Z,20.90
2018-04-18T05:34:19.800Z,21.90
2018-04-18T05:38:22.544Z,22.07
2018-04-18T05:42:25.973Z,20.33
2018-04-18T05:46:28.643Z,20.23
2018-04-18T05:50:32.119Z,22.33
2018-04-18T05:54:35.654Z,19.87
2018-04-18T05:58:38.307Z,28.50
2018-04-18T06:02:41.075Z,23.93
2018-04-18T06:06:43.806Z,24.60
2018-04-18T06:10:46.416Z,25.97
2018-04-18T06:14:49.898Z,23.87
2018-04-18T06:18:53.349Z,31.20
2018-04-18T06:22:56.004Z,26.77
2018-04-18T06:26:58.655Z,31.23
2018-04-18T06:31:01.272Z,28.03
2018-04-18T06:35:03.989Z,23.47
2018-04-18T06:39:07.467Z,23.67
2018-04-18T06:43:10.121Z,30.40
2018-04-18T06:47:12.797Z,26.73
2018-04-18T06:51:15.619Z,20.97
2018-04-18T06:55:18.329Z,30.70
2018-04-18T06:59:21.002Z,22.83
2018-04-18T07:03:23.677Z,27.50
2018-04-18T07:07:26.368Z,22.90
2018-04-18T07:11:29.033Z,36.17
2018-04-18T07:15:31.702Z,22.70
2018-04-18T07:19:35.139Z,22.03
2018-04-18T07:23:37.922Z,18.90
2018-04-18T07:27:40.652Z,22.57
2018-04-18T07:31:43.301Z,20.43
2018-04-18T07:35:46.067Z,21.53
2018-04-18T07:39:49.559Z,22.73
2018-04-18T07:43:52.287Z,17.40
2018-04-18T07:47:54.972Z,16.57
2018-04-18T07:51:57.700Z,21.10
2018-04-18T07:56:00.467Z,20.50
2018-04-18T08:00:03.170Z,27.60
2018-04-18T08:04:05.841Z,27.67
2018-04-18T08:08:08.496Z,29.53
2018-04-18T08:12:11.934Z,30.50
2018-04-18T08:16:14.629Z,26.20
2018-04-18T08:20:17.303Z,28.73
2018-04-18T08:24:19.977Z,25.83
2018-04-18T08:28:23.380Z,22.87
2018-04-18T08:32:26.881Z,34.73
2018-04-18T08:36:29.593Z,34.47
2018-04-18T08:40:32.266Z,28.70
2018-04-18T08:44:35.802Z,34.07
2018-04-18T08:48:38.470Z,29.10
2018-04-18T08:52:41.912Z,31.27
2018-04-18T08:56:44.575Z,33.37
2018-04-18T09:00:48.057Z,35.23
2018-04-18T09:04:50.722Z,40.70
2018-04-18T09:08:53.389Z,39.50
2018-04-18T09:12:56.048Z,34.30
2018-04-18T09:16:59.476Z,37.93
2018-04-18T09:21:02.192Z,43.97
2018-04-18T09:25:04.917Z,36.63
2018-04-18T09:29:08.362Z,37.30
2018-04-18T09:33:11.021Z,39.07
2018-04-18T09:37:14.442Z,40.77
2018-04-18T09:41:17.105Z,45.70
2018-04-18T09:45:20.621Z,34.43
2018-04-18T09:49:23.313Z,37.07
2018-04-18T09:53:26.740Z,37.43
2018-04-18T09:57:29.400Z,35.93
2018-04-18T10:01:38.551Z,36.20
2018-04-18T10:05:41.972Z,37.90
2018-04-18T10:09:44.628Z,33.83
2018-04-18T10:13:47.281Z,31.97
2018-04-18T10:17:49.942Z,22.40
2018-04-18T10:21:52.556Z,30.63
2018-04-18T10:25:55.217Z,25.73
2018-04-18T10:29:57.870Z,28.33
2018-04-18T10:34:00.533Z,33.40
2018-04-18T10:38:03.241Z,29.57
2018-04-18T10:42:06.088Z,30.17
2018-04-18T10:46:08.747Z,34.83
2018-04-18T10:50:12.160Z,34.67
2018-04-18T10:54:15.632Z,29.63
2018-04-18T10:58:18.292Z,28.27
2018-04-18T11:02:20.956Z,31.60
2018-04-18T11:06:23.631Z,28.97
2018-04-18T11:10:27.056Z,32.20
2018-04-18T11:14:29.764Z,28.27
2018-04-18T11:18:33.245Z,30.13
2018-04-18T11:22:35.880Z,26.77
2018-04-18T11:26:38.541Z,35.20
2018-04-18T11:30:41.198Z,24.47
2018-04-18T11:34:44.625Z,38.47
2018-04-18T11:38:47.289Z,25.40
2018-04-18T11:42:50.676Z,21.07
2018-04-18T11:46:53.332Z,12.93
2018-04-18T11:50:56.012Z,16.17
2018-04-18T11:54:58.657Z,19.10
2018-04-18T11:59:02.081Z,15.13
2018-04-18T12:03:05.495Z,24.93
2018-04-18T12:07:08.156Z,26.13
2018-04-18T12:11:10.849Z,19.60
2018-04-18T12:15:14.275Z,19.47
2018-04-18T12:19:16.929Z,19.37
2018-04-18T12:23:19.528Z,25.20
2018-04-18T12:27:22.951Z,21.90
2018-04-18T12:31:25.625Z,28.27
2018-04-18T12:35:29.112Z,24.30
2018-04-18T12:39:31.760Z,22.37
2018-04-18T12:43:34.369Z,21.63
2018-04-18T12:47:37.016Z,19.53
2018-04-18T12:51:39.989Z,46.33
2018-04-18T12:55:42.991Z,28.80
2018-04-18T12:59:46.416Z,25.00
2018-04-18T13:03:49.108Z,73.20
2018-04-18T13:07:51.774Z,23.00
2018-04-18T13:11:55.268Z,36.50
2018-04-18T13:15:57.925Z,23.77
2018-04-18T13:20:00.579Z,19.10
2018-04-18T13:24:03.241Z,27.07
2018-04-18T13:28:05.890Z,24.20
2018-04-18T13:32:08.535Z,23.03
2018-04-18T13:36:11.949Z,24.23
2018-04-18T13:40:14.604Z,25.63
2018-04-18T13:44:17.213Z,23.93
2018-04-18T13:48:20.644Z,27.97
2018-04-18T13:52:23.360Z,19.37
2018-04-18T13:56:26.013Z,25.03
2018-04-18T14:00:28.669Z,24.00
2018-04-18T14:04:31.293Z,30.37
2018-04-18T14:08:33.985Z,26.13
2018-04-18T14:12:36.692Z,35.13
2018-04-18T14:16:39.401Z,23.43
2018-04-18T14:20:42.071Z,25.77
2018-04-18T14:24:44.683Z,21.80
2018-04-18T14:28:47.340Z,26.33
2018-04-18T14:32:49.993Z,29.97
2018-04-18T14:36:53.407Z,33.53
2018-04-18T14:40:56.100Z,29.90
2018-04-18T14:44:59.484Z,27.13
2018-04-18T14:49:02.135Z,28.33
2018-04-18T14:53:04.789Z,31.97
2018-04-18T14:57:07.446Z,26.13
2018-04-18T15:01:10.096Z,30.03
2018-04-18T15:05:12.794Z,27.03
2018-04-18T15:09:15.551Z,25.60
2018-04-18T15:13:18.208Z,26.63
2018-04-18T15:17:20.861Z,27.87
2018-04-18T15:21:23.609Z,32.73
2018-04-18T15:25:26.242Z,31.80
2018-04-18T15:29:28.893Z,27.07
2018-04-18T15:33:31.594Z,32.57
2018-04-18T15:37:34.251Z,31.60
2018-04-18T15:41:37.668Z,28.70
2018-04-18T15:45:41.050Z,31.83
2018-04-18T15:49:43.702Z,26.87
2018-04-18T15:53:46.376Z,31.43
2018-04-18T15:57:49.033Z,25.53
2018-04-18T16:01:51.731Z,28.33
2018-04-18T16:05:54.411Z,26.83
2018-04-18T16:09:57.848Z,25.10
2018-04-18T16:14:00.581Z,29.83
2018-04-18T16:18:03.247Z,26.83
2018-04-18T16:22:06.358Z,23.87
2018-04-18T16:26:09.524Z,26.33
2018-04-18T16:30:24.977Z,24.60
2018-04-18T16:34:28.835Z,26.50
2018-04-18T16:38:31.500Z,28.57
2018-04-18T16:42:34.211Z,31.40
2018-04-18T16:46:36.832Z,31.70
2018-04-18T16:50:39.489Z,28.30
2018-04-18T16:54:42.275Z,27.60
2018-04-18T16:58:44.928Z,31.93
2018-04-18T17:02:48.361Z,29.50
2018-04-18T17:06:51.032Z,27.77
2018-04-18T17:10:54.444Z,26.97
2018-04-18T17:14:57.861Z,35.93
2018-04-18T17:19:00.585Z,30.50
2018-04-18T17:23:03.192Z,31.93
2018-04-18T17:27:05.875Z,34.20
2018-04-18T17:31:08.596Z,33.97
2018-04-18T17:35:12.011Z,26.60
2018-04-18T17:39:14.634Z,31.50
2018-04-18T17:43:17.304Z,33.00
2018-04-18T17:47:19.968Z,36.97
2018-04-18T17:51:23.437Z,35.37
2018-04-18T17:55:26.133Z,38.57
2018-04-18T17:59:28.792Z,35.40
2018-04-18T18:03:31.464Z,35.00
2018-04-18T18:07:34.125Z,28.07
2018-04-18T18:11:37.553Z,26.43
2018-04-18T18:15:40.180Z,27.00
2018-04-18T18:19:42.907Z,23.60
2018-04-18T18:23:46.355Z,27.30
2018-04-18T18:27:49.780Z,27.93
2018-04-18T18:31:52.494Z,24.83
2018-04-18T18:35:55.214Z,33.03
2018-04-18T18:39:58.657Z,26.27
2018-04-18T18:44:01.304Z,28.13
2018-04-18T18:48:04.780Z,33.57
2018-04-18T18:52:07.400Z,24.73
2018-04-18T18:56:10.831Z,23.60
2018-04-18T19:00:13.538Z,31.17
2018-04-18T19:04:16.175Z,24.83
2018-04-18T19:08:18.825Z,26.17
2018-04-18T19:12:21.436Z,24.37
2018-04-18T19:16:24.091Z,25.83
2018-04-18T19:20:27.534Z,27.53
2018-04-18T19:24:30.197Z,22.47
2018-04-18T19:28:32.949Z,27.17
2018-04-18T19:32:35.618Z,22.30
2018-04-18T19:36:38.310Z,26.17
2018-04-18T19:40:41.729Z,26.43
2018-04-18T19:44:45.188Z,30.83
2018-04-18T19:48:47.796Z,30.97
2018-04-18T19:52:50.451Z,33.17
2018-04-18T19:56:54.048Z,26.23
2018-04-18T20:00:56.741Z,31.87
2018-04-18T20:04:59.388Z,30.83
2018-04-18T20:09:02.765Z,32.87
2018-04-18T20:13:05.478Z,27.93
2018-04-18T20:17:08.133Z,32.63
2018-04-18T20:21:10.844Z,33.93
2018-04-18T20:25:13.508Z,26.63
2018-04-18T20:29:16.115Z,30.07
2018-04-18T20:33:18.775Z,26.93
2018-04-18T20:37:21.439Z,26.13
2018-04-18T20:41:24.156Z,29.03
2018-04-18T20:45:26.809Z,30.70
2018-04-18T20:49:30.184Z,26.60
2018-04-18T20:53:32.844Z,27.63
2018-04-18T20:57:35.497Z,22.97
2018-04-18T21:01:38.149Z,28.80
2018-04-18T21:05:40.795Z,30.43
2018-04-18T21:09:43.407Z,22.10
2018-04-18T21:13:46.074Z,27.27
2018-04-18T21:17:48.816Z,30.17
2018-04-18T21:21:52.234Z,25.10
2018-04-18T21:25:55.711Z,26.47
2018-04-18T21:29:58.328Z,22.53
2018-04-18T21:34:01.759Z,28.40
2018-04-18T21:38:04.412Z,27.10
2018-04-18T21:42:07.080Z,25.00
2018-04-18T21:46:10.588Z,31.83
2018-04-18T21:50:13.202Z,20.90
2018-04-18T21:54:16.629Z,27.80
2018-04-18T21:58:19.280Z,30.77
2018-04-18T22:02:21.938Z,26.57
2018-04-18T22:06:24.598Z,30.53
2018-04-18T22:10:27.212Z,29.13
2018-04-18T22:14:29.864Z,34.77
2018-04-18T22:18:33.384Z,25.60
2018-04-18T22:22:36.036Z,32.13
2018-04-18T22:26:38.691Z,31.50
2018-04-18T22:30:41.309Z,33.13
2018-04-18T22:34:43.963Z,34.13
2018-04-18T22:38:46.616Z,32.23
2018-04-18T22:42:49.272Z,32.63
2018-04-18T22:46:51.929Z,31.63
2018-04-18T22:50:54.545Z,33.30
2018-04-18T22:54:57.202Z,37.00
2018-04-18T22:58:59.904Z,36.27
2018-04-18T23:03:02.568Z,41.43
2018-04-18T23:07:05.226Z,39.20
2018-04-18T23:11:08.602Z,39.40
2018-04-18T23:15:11.264Z,38.83
2018-04-18T23:19:13.980Z,34.50
2018-04-18T23:23:16.632Z,32.43
2018-04-18T23:27:19.237Z,31.97
2018-04-18T23:31:21.892Z,31.57
2018-04-18T23:35:24.580Z,28.63
2018-04-18T23:39:27.240Z,27.80
2018-04-18T23:43:29.891Z,29.07
2018-04-18T23:47:32.556Z,35.53
2018-04-18T23:51:35.208Z,36.93
2018-04-18T23:55:38.635Z,37.90
2018-04-18T23:59:41.279Z,38.03
